TimeMST,TemperatureF,Dew PointF,Humidity,Sea Level PressureIn,VisibilityMPH,Wind Direction,Wind SpeedMPH,Gust SpeedMPH,PrecipitationIn,Events,Conditions,WindDirDegrees,DateUTC
5:00 AM,-1,-5,76,30.33,15,NW,3.5,,,,Clear,310,2013-01-11 12:00:00
5:00 AM,-0.4,-4.0,85,30.32,15.0,WNW,3.5,-,N/A,,Scattered Clouds,300,2013-01-11 12:00:00
6:00 AM,-2.2,-5.8,85,30.33,15.0,WNW,4.6,-,N/A,,Mostly Cloudy,300,2013-01-11 13:00:00
7:00 AM,-2.2,-5.8,85,30.35,15.0,NNW,3.5,-,N/A,,Scattered Clouds,330,2013-01-11 14:00:00
9:00 AM,-4.0,-7.6,85,30.37,15.0,Calm,Calm,-,N/A,,Mostly Cloudy,0,2013-01-11 16:00:00
10:00 AM,-9.4,-14.8,77,30.39,5.0,NW,3.5,-,N/A,,Mostly Cloudy,320,2013-01-11 17:00:00
10:48 AM,-9.4,-14.8,77,30.39,1.0,NW,5.8,-,N/A,,Scattered Clouds,310,2013-01-11 17:48:00
11:00 AM,-7,-12,68,30.39,3,NW,6.9,,,,Scattered Clouds,310,2013-01-11 18:00:00
11:00 AM,-7.6,-11.2,84,30.39,3.0,NW,6.9,-,N/A,,Scattered Clouds,310,2013-01-11 18:00:00
11:11 AM,-5.8,-11.2,77,30.38,20.0,NW,4.6,-,N/A,,Scattered Clouds,320,2013-01-11 18:11:00
12:00 PM,-4.0,-9.4,78,30.36,20.0,Calm,Calm,-,N/A,,Scattered Clouds,0,2013-01-11 19:00:00
1:00 PM,-0.4,-4.0,85,30.33,30.0,Calm,Calm,-,N/A,,Scattered Clouds,0,2013-01-11 20:00:00
2:00 PM,1.4,-4.0,78,30.30,30.0,Calm,Calm,-,N/A,,Partly Cloudy,0,2013-01-11 21:00:00
3:00 PM,-0.4,-5.8,78,30.30,20.0,Calm,Calm,-,N/A,,Clear,0,2013-01-11 22:00:00
4:00 PM,-0.4,-4.0,85,30.29,20.0,Calm,Calm,-,N/A,,Clear,0,2013-01-11 23:00:00
5:00 PM,-0,-5,71,30.28,19,Calm,Calm,,,Fog,Patches of Fog,,2013-01-12 00:00:00
5:00 PM,-0.4,-4.0,85,30.28,20.0,Calm,Calm,-,N/A,Fog,Shallow Fog,0,2013-01-12 00:00:00
6:00 PM,-4.0,-9.4,78,30.29,15.0,WNW,3.5,-,N/A,,Clear,300,2013-01-12 01:00:00
7:00 PM,-4.0,-7.6,85,30.28,15.0,NW,4.6,-,N/A,,Clear,320,2013-01-12 02:00:00
8:00 PM,-7.6,-13.0,77,30.28,15.0,WNW,8.1,-,N/A,,Clear,300,2013-01-12 03:00:00
9:00 PM,-11.2,-16.6,77,30.27,15.0,NW,8.1,-,N/A,,Clear,320,2013-01-12 04:00:00